Time;durP1;ratioP1;P1;durP2;ratioP2;P2;SDS_P1;SDS_P2;PMS_P1;PMS_P2;Temp;Humidity;BMP_temperature;BMP_pressure;BME280_temperature;BME280_humidity;BME280_pressure;Samples;Min_cycle;Max_cycle;Signal;HPM_P1;HPM_P2
2023/01/26 00:01:36;;;;;;;;;;;;;;;1.88;100.00;102524.63;5076279;28;19940;-76
2023/01/26 00:04:02;;;;;;;;;;;;;;;1.88;100.00;102522.91;5077480;28;19927;-76
2023/01/26 00:06:27;;;;;;;;;;;;;;;1.89;100.00;102527.25;5096750;28;20287;-76
2023/01/26 00:08:54;;;;;;;;;;;;;;;1.90;100.00;102522.97;5096107;28;19961;-76
2023/01/26 00:11:25;;;;;;;;;;;;;;;1.90;100.00;102523.81;5078397;28;19969;-76
2023/01/26 00:13:51;;;;;;;;;;;;;;;1.90;100.00;102522.97;5077081;28;19920;-76
2023/01/26 00:16:16;;;;;;;;;;;;;;;1.90;100.00;102523.81;5076873;28;19927;-76
2023/01/26 00:18:41;;;;;;;;;;;;;;;1.91;100.00;102524.69;5076979;28;20216;-76
2023/01/26 00:21:09;;;;;;;;;;;;;;;1.91;100.00;102527.25;5079597;28;20225;-76
2023/01/26 00:23:35;;;;;;;;;;;;;;;1.91;100.00;102533.31;5076525;28;20117;-76
2023/01/26 00:26:00;;;;;;;;;;;;;;;1.91;100.00;102525.59;5080369;28;19995;-76
2023/01/26 00:28:26;;;;;;;;;;;;;;;1.91;100.00;102527.25;5076040;28;20124;-76
2023/01/26 00:30:51;;;;;;;;;;;;;;;1.92;100.00;102529.88;5080415;28;20109;-76
2023/01/26 00:33:16;;;;;;;;;;;;;;;1.94;100.00;102529.06;5076723;28;19948;-76
2023/01/26 00:35:43;;;;;;;;;;;;;;;1.94;100.00;102529.06;5081321;28;19962;-76
2023/01/26 00:38:09;;;;;;;;;;;;;;;1.93;100.00;102530.78;5076829;28;19919;-76
2023/01/26 00:40:34;;;;;;;;;;;;;;;1.95;100.00;102523.03;5079686;28;19956;-76
2023/01/26 00:42:59;;;;;;;;;;;;;;;1.95;100.00;102515.28;5076966;28;20311;-76
2023/01/26 00:45:26;;;;;;;;;;;;;;;1.95;100.00;102511.00;5081954;28;20082;-76
2023/01/26 00:47:51;;;;;;;;;;;;;;;1.95;100.00;102504.94;5076976;28;20211;-76
2023/01/26 00:50:16;;;;;;;;;;;;;;;1.95;100.00;102505.84;5082702;28;20265;-76
2023/01/26 00:52:41;;;;;;;;;;;;;;;1.96;100.00;102505.00;5075504;28;19921;-76
2023/01/26 00:55:07;;;;;;;;;;;;;;;1.97;100.00;102506.75;5083604;28;19931;-76
2023/01/26 00:57:32;;;;;;;;;;;;;;;1.96;100.00;102505.00;5076667;28;19917;-76
2023/01/26 00:59:57;;;;;;;;;;;;;;;1.98;100.00;102502.44;5082661;28;20257;-76
2023/01/26 01:02:23;;;;;;;;;;;;;;;1.98;100.00;102494.69;5078654;28;20236;-76
2023/01/26 01:04:48;;;;;;;;;;;;;;;1.98;100.00;102492.09;5093135;28;20257;-76
2023/01/26 01:07:13;;;;;;;;;;;;;;;1.98;100.00;102500.72;5079645;28;20219;-76
2023/01/26 01:09:39;;;;;;;;;;;;;;;1.99;100.00;102483.53;5074866;28;20200;-76
2023/01/26 01:12:04;;;;;;;;;;;;;;;1.98;100.00;102482.63;5091808;28;19923;-76
2023/01/26 01:14:29;;;;;;;;;;;;;;;1.99;100.00;102491.28;5093778;28;19924;-76
2023/01/26 01:16:55;;;;;;;;;;;;;;;2.00;100.00;102474.91;5093212;28;20267;-76
2023/01/26 01:19:20;;;;;;;;;;;;;;;1.99;100.00;102479.22;5096701;28;19958;-77
2023/01/26 01:21:45;;;;;;;;;;;;;;;2.00;100.00;102477.50;5089681;28;20119;-77
2023/01/26 01:24:11;;;;;;;;;;;;;;;2.00;100.00;102480.97;5097891;28;20204;-77
2023/01/26 01:26:36;;;;;;;;;;;;;;;2.00;100.00;102491.31;5088041;28;20037;-77
2023/01/26 01:29:02;;;;;;;;;;;;;;;2.01;100.00;102479.25;5099572;28;19982;-77
2023/01/26 01:31:28;;;;;;;;;;;;;;;2.02;100.00;102475.81;5086895;28;19916;-77
2023/01/26 01:33:53;;;;;;;;;;;;;;;2.02;100.00;102481.88;5099975;28;19939;-77
2023/01/26 01:36:19;;;;;;;;;;;;;;;2.03;100.00;102480.16;5084953;28;20211;-77
2023/01/26 01:38:45;;;;;;;;;;;;;;;2.02;100.00;102481.00;5099750;28;19988;-77
2023/01/26 01:41:11;;;;;;;;;;;;;;;2.03;100.00;102481.03;5083189;28;20007;-77
2023/01/26 01:43:37;;;;;;;;;;;;;;;2.03;100.00;102482.75;5099325;28;19926;-77
2023/01/26 01:46:05;;;;;;;;;;;;;;;2.04;100.00;102489.66;5083472;28;19944;-77
2023/01/26 01:48:36;;;;;;;;;;;;;;;2.02;100.00;102487.06;5099250;28;20157;-77
2023/01/26 01:51:12;;;;;;;;;;;;;;;2.03;100.00;102487.91;5082077;28;19956;-77
2023/01/26 01:53:39;;;;;;;;;;;;;;;2.03;100.00;102488.78;5099138;28;20209;-77
2023/01/26 01:56:07;;;;;;;;;;;;;;;2.03;100.00;102486.19;5080732;28;19916;-77
2023/01/26 01:58:36;;;;;;;;;;;;;;;2.04;100.00;102482.78;5058576;28;19913;-77
2023/01/26 02:04:04;;;;;;;;;;;;;;;2.04;100.00;102475.03;5068288;28;20254;-77
2023/01/26 02:06:30;;;;;;;;;;;;;;;2.04;100.00;102472.44;5096889;28;19924;-77
2023/01/26 02:08:56;;;;;;;;;;;;;;;2.04;100.00;102477.63;5080054;28;19912;-77
2023/01/26 02:11:27;;;;;;;;;;;;;;;2.05;100.00;102468.13;5097216;28;19985;-77
2023/01/26 02:13:53;;;;;;;;;;;;;;;2.05;100.00;102476.75;5058152;28;20200;-77
2023/01/26 02:16:18;;;;;;;;;;;;;;;2.06;100.00;102475.94;5093849;28;19931;-77
2023/01/26 02:18:44;;;;;;;;;;;;;;;2.06;100.00;102477.66;5079307;28;19921;-77
2023/01/26 02:21:11;;;;;;;;;;;;;;;2.05;100.00;102476.75;5095051;28;19920;-77
2023/01/26 02:24:09;;;;;;;;;;;;;;;2.06;100.00;102473.34;5095606;28;19920;-77
2023/01/26 02:26:35;;;;;;;;;;;;;;;2.06;100.00;102464.72;5025041;28;19960;-77
2023/01/26 02:29:01;;;;;;;;;;;;;;;2.07;100.00;102466.47;5096609;28;19916;-77
2023/01/26 02:31:27;;;;;;;;;;;;;;;2.07;100.00;102469.03;5098478;28;19930;-77
2023/01/26 02:33:52;;;;;;;;;;;;;;;2.06;100.00;102468.19;5078833;28;20212;-77
2023/01/26 02:36:21;;;;;;;;;;;;;;;2.07;100.00;102467.34;5095710;28;19923;-77
2023/01/26 02:39:10;;;;;;;;;;;;;;;2.06;100.00;102468.19;5082605;28;19978;-77
2023/01/26 02:44:19;;;;;;;;;;;;;;;2.08;100.00;102470.78;5059889;28;19931;-77
2023/01/26 02:46:44;;;;;;;;;;;;;;;2.09;100.00;102470.84;5097341;28;20176;-77
2023/01/26 02:51:53;;;;;;;;;;;;;;;2.11;100.00;102484.66;5078570;28;19920;-77
2023/01/26 02:57:02;;;;;;;;;;;;;;;2.13;100.00;102494.13;5096281;28;20025;-77
2023/01/26 02:59:28;;;;;;;;;;;;;;;2.13;100.00;102488.97;5092050;28;19928;-77
2023/01/26 03:01:54;;;;;;;;;;;;;;;2.13;100.00;102487.28;5094843;28;19916;-77
2023/01/26 03:04:20;;;;;;;;;;;;;;;2.14;100.00;102482.97;5076992;28;20303;-77
2023/01/26 03:06:45;;;;;;;;;;;;;;;2.14;100.00;102483.84;5097116;28;19986;-77
2023/01/26 03:09:10;;;;;;;;;;;;;;;2.14;100.00;102482.97;5081625;28;19924;-77
2023/01/26 03:11:40;;;;;;;;;;;;;;;2.15;100.00;102479.53;5077723;28;19919;-77
2023/01/26 03:14:10;;;;;;;;;;;;;;;2.15;100.00;102483.00;5074359;28;19916;-77
2023/01/26 03:16:35;;;;;;;;;;;;;;;2.16;100.00;102483.88;5097658;28;19916;-77
2023/01/26 03:29:40;;;;;;;;;;;;;;;2.18;100.00;102482.19;5096611;28;19941;-78
2023/01/26 03:32:05;;;;;;;;;;;;;;;2.18;100.00;102477.88;5098619;28;19969;-78
2023/01/26 03:34:31;;;;;;;;;;;;;;;2.18;100.00;102479.59;5097653;28;20119;-78
2023/01/26 03:36:56;;;;;;;;;;;;;;;2.18;100.00;102477.00;5098418;28;19962;-78
2023/01/26 03:58:29;;;;;;;;;;;;;;;2.20;100.00;102475.31;5066023;28;20277;-78
2023/01/26 04:00:55;;;;;;;;;;;;;;;2.22;100.00;102486.56;5096703;28;19920;-78
2023/01/26 04:08:48;;;;;;;;;;;;;;;2.21;100.00;102485.72;5077669;28;20482;-78
2023/01/26 04:11:13;;;;;;;;;;;;;;;2.21;100.00;102480.53;5078403;28;19983;-78
2023/01/26 04:21:50;;;;;;;;;;;;;;;2.22;100.00;102491.75;5090651;28;19932;-78
2023/01/26 04:24:16;;;;;;;;;;;;;;;2.22;100.00;102482.28;5084668;28;19920;-78
2023/01/26 04:26:42;;;;;;;;;;;;;;;2.23;100.00;102477.97;5092002;28;20014;-78
2023/01/26 04:29:08;;;;;;;;;;;;;;;2.22;100.00;102490.03;5082719;28;19916;-78
2023/01/26 04:31:33;;;;;;;;;;;;;;;2.23;100.00;102485.75;5092430;28;19928;-78
2023/01/26 04:33:59;;;;;;;;;;;;;;;2.24;100.00;102482.34;5081222;28;19921;-78
2023/01/26 04:36:25;;;;;;;;;;;;;;;2.22;100.00;102481.41;5094654;28;19983;-78
2023/01/26 04:38:50;;;;;;;;;;;;;;;2.22;100.00;102481.41;5078134;28;19924;-78
2023/01/26 04:41:16;;;;;;;;;;;;;;;2.23;100.00;102477.97;5097022;28;19923;-78
2023/01/26 04:43:41;;;;;;;;;;;;;;;2.23;100.00;102480.56;5078047;28;19920;-78
2023/01/26 04:46:07;;;;;;;;;;;;;;;2.24;100.00;102484.91;5091382;28;20011;-78
2023/01/26 04:48:32;;;;;;;;;;;;;;;2.25;100.00;102481.47;5099688;28;19946;-78
2023/01/26 04:50:59;;;;;;;;;;;;;;;2.26;100.00;102484.09;5082800;28;19912;-78
2023/01/26 04:53:25;;;;;;;;;;;;;;;2.26;100.00;102481.50;5081012;28;19908;-78
2023/01/26 04:55:51;;;;;;;;;;;;;;;2.27;100.00;102479.78;5095353;28;20119;-78
2023/01/26 04:58:16;;;;;;;;;;;;;;;2.28;100.00;102479.81;5080207;28;19924;-78
2023/01/26 05:00:42;;;;;;;;;;;;;;;2.28;100.00;102479.81;5096159;28;19924;-78
2023/01/26 05:03:07;;;;;;;;;;;;;;;2.29;100.00;102488.44;5101126;28;19916;-78
2023/01/26 05:05:36;;;;;;;;;;;;;;;2.29;100.00;102478.09;5086895;28;19968;-78
2023/01/26 05:08:01;;;;;;;;;;;;;;;2.30;100.00;102479.84;5098163;28;20146;-78
2023/01/26 05:10:27;;;;;;;;;;;;;;;2.30;100.00;102491.06;5091903;28;19920;-78
2023/01/26 05:12:52;;;;;;;;;;;;;;;2.30;100.00;102477.28;5100180;28;19916;-78
2023/01/26 05:15:17;;;;;;;;;;;;;;;2.31;100.00;102481.63;5090517;28;19991;-78
2023/01/26 05:17:42;;;;;;;;;;;;;;;2.31;100.00;102486.78;5098002;28;19943;-78
2023/01/26 05:20:08;;;;;;;;;;;;;;;2.30;100.00;102491.06;5100166;28;20237;-78
2023/01/26 05:22:33;;;;;;;;;;;;;;;2.32;100.00;102487.66;5100581;28;19912;-78
2023/01/26 05:24:58;;;;;;;;;;;;;;;2.32;100.00;102482.47;5094727;28;19924;-78
2023/01/26 05:27:24;;;;;;;;;;;;;;;2.33;100.00;102489.38;5092738;28;19920;-78
2023/01/26 05:29:50;;;;;;;;;;;;;;;2.33;100.00;102484.19;5096404;28;20276;-78
2023/01/26 05:32:15;;;;;;;;;;;;;;;2.33;100.00;102490.25;5095386;28;19995;-78
2023/01/26 05:34:41;;;;;;;;;;;;;;;2.34;100.00;102491.13;5096714;28;19943;-78
2023/01/26 05:37:06;;;;;;;;;;;;;;;2.34;100.00;102485.97;5081588;28;19912;-78
2023/01/26 05:39:31;;;;;;;;;;;;;;;2.34;100.00;102489.41;5080038;28;20007;-78
2023/01/26 05:41:56;;;;;;;;;;;;;;;2.35;100.00;102492.84;5079911;28;19921;-78
2023/01/26 05:44:23;;;;;;;;;;;;;;;2.36;100.00;102492.88;5079418;28;19921;-78
2023/01/26 05:46:49;;;;;;;;;;;;;;;2.38;100.00;102492.94;5098027;28;19923;-78
2023/01/26 05:49:14;;;;;;;;;;;;;;;2.38;100.00;102498.09;5081474;28;19965;-78
2023/01/26 05:51:40;;;;;;;;;;;;;;;2.38;100.00;102488.63;5095830;28;20223;-78
2023/01/26 05:54:05;;;;;;;;;;;;;;;2.39;100.00;102486.94;5100262;28;19934;-78
2023/01/26 05:56:30;;;;;;;;;;;;;;;2.40;100.00;102493.81;5083903;28;19948;-78
2023/01/26 05:58:55;;;;;;;;;;;;;;;2.40;100.00;102494.72;5078736;28;20388;-78
2023/01/26 06:01:21;;;;;;;;;;;;;;;2.42;100.00;102499.88;5092472;28;19989;-78
2023/01/26 06:03:46;;;;;;;;;;;;;;;2.41;100.00;102500.75;5100163;28;19912;-78
2023/01/26 06:06:11;;;;;;;;;;;;;;;2.42;100.00;102499.88;5087068;28;19930;-78
2023/01/26 06:08:36;;;;;;;;;;;;;;;2.43;100.00;102504.25;5078858;28;19917;-78
2023/01/26 06:11:02;;;;;;;;;;;;;;;2.43;100.00;102496.47;5090194;28;19961;-78
2023/01/26 06:13:27;;;;;;;;;;;;;;;2.44;100.00;102500.81;5098950;28;20115;-78
2023/01/26 06:15:52;;;;;;;;;;;;;;;2.44;100.00;102504.28;5095353;28;19923;-78
2023/01/26 06:18:17;;;;;;;;;;;;;;;2.45;100.00;102506.00;5098851;28;19924;-78
2023/01/26 06:20:43;;;;;;;;;;;;;;;2.47;100.00;102506.03;5089883;28;20284;-78
2023/01/26 06:23:10;;;;;;;;;;;;;;;2.48;100.00;102500.03;5079333;28;19930;-78
2023/01/26 06:25:38;;;;;;;;;;;;;;;2.48;100.00;102506.06;5081985;28;19933;-78
2023/01/26 06:28:03;;;;;;;;;;;;;;;2.50;100.00;102506.09;5078983;28;19938;-78
2023/01/26 06:30:28;;;;;;;;;;;;;;;2.50;100.00;102509.56;5082269;28;20242;-78
2023/01/26 06:32:54;;;;;;;;;;;;;;;2.54;100.00;102517.38;5077982;28;19943;-78
2023/01/26 06:35:19;;;;;;;;;;;;;;;2.55;100.00;102521.69;5083323;28;19995;-78
2023/01/26 06:37:46;;;;;;;;;;;;;;;2.55;100.00;102521.69;5079078;28;20168;-78
2023/01/26 06:40:12;;;;;;;;;;;;;;;2.57;100.00;102514.88;5083329;28;19924;-78
2023/01/26 06:42:37;;;;;;;;;;;;;;;2.58;100.00;102524.34;5097831;28;20221;-78
2023/01/26 06:45:02;;;;;;;;;;;;;;;2.59;100.00;102526.97;5094258;28;19956;-78
2023/01/26 06:47:27;;;;;;;;;;;;;;;2.60;100.00;102527.84;5095258;28;19932;-78
2023/01/26 06:49:53;;;;;;;;;;;;;;;2.61;100.00;102538.22;5098696;28;19920;-78
2023/01/26 06:52:21;;;;;;;;;;;;;;;2.64;100.00;102534.84;5082038;28;19916;-78
2023/01/26 06:54:49;;;;;;;;;;;;;;;2.65;100.00;102532.25;5078885;28;20472;-78
2023/01/26 06:57:15;;;;;;;;;;;;;;;2.67;100.00;102538.34;5083225;28;20208;-78
2023/01/26 06:59:40;;;;;;;;;;;;;;;2.69;100.00;102541.84;5078579;28;19927;-78
2023/01/26 07:02:09;;;;;;;;;;;;;;;2.74;100.00;102541.03;5097772;28;19924;-78
2023/01/26 07:04:35;;;;;;;;;;;;;;;2.78;100.00;102542.84;5098235;28;19916;-78
2023/01/26 07:07:00;;;;;;;;;;;;;;;2.82;100.00;102542.03;5083668;28;19999;-78
2023/01/26 07:09:25;;;;;;;;;;;;;;;2.87;100.00;102543.91;5077673;28;20117;-78
2023/01/26 07:11:50;;;;;;;;;;;;;;;2.94;100.00;102551.78;5084680;28;19924;-78
2023/01/26 07:14:16;;;;;;;;;;;;;;;2.99;100.00;102550.16;5077798;28;20251;-78
2023/01/26 07:16:44;;;;;;;;;;;;;;;3.04;100.00;102551.97;5085218;28;19916;-78
2023/01/26 07:19:09;;;;;;;;;;;;;;;3.08;100.00;102546.00;5079236;28;20168;-78
2023/01/26 07:21:35;;;;;;;;;;;;;;;3.11;100.00;102550.38;5091859;28;20017;-78
2023/01/26 07:24:00;;;;;;;;;;;;;;;3.17;100.00;102555.66;5078095;28;19939;-78
2023/01/26 07:26:26;;;;;;;;;;;;;;;3.22;100.00;102555.72;5092893;28;19971;-78
2023/01/26 07:28:51;;;;;;;;;;;;;;;3.26;100.00;102563.56;5078077;28;20000;-78
2023/01/26 07:31:16;;;;;;;;;;;;;;;3.30;100.00;102567.09;5092878;28;19928;-78
2023/01/26 07:33:41;;;;;;;;;;;;;;;3.32;100.00;102567.97;5078127;28;20248;-78
2023/01/26 07:36:07;;;;;;;;;;;;;;;3.36;100.00;102566.31;5092611;28;19947;-78
2023/01/26 07:38:33;;;;;;;;;;;;;;;3.38;100.00;102575.84;5076274;28;19950;-78
2023/01/26 07:40:58;;;;;;;;;;;;;;;3.39;100.00;102577.59;5091559;28;19953;-78
2023/01/26 07:43:23;;;;;;;;;;;;;;;3.40;100.00;102579.34;5076817;28;19954;-78
2023/01/26 07:45:52;;;;;;;;;;;;;;;3.42;100.00;102575.06;5089898;28;19933;-78
2023/01/26 07:48:18;;;;;;;;;;;;;;;3.42;100.00;102584.53;5079738;28;19935;-78
2023/01/26 07:50:44;;;;;;;;;;;;;;;3.42;100.00;102588.03;5077817;28;19913;-78
2023/01/26 07:53:11;;;;;;;;;;;;;;;3.43;100.00;102592.34;5070393;28;19924;-78
2023/01/26 07:55:36;;;;;;;;;;;;;;;3.45;100.00;102592.38;5083986;28;20276;-78
2023/01/26 07:58:02;;;;;;;;;;;;;;;3.45;100.00;102594.97;5077513;28;19920;-78
2023/01/26 08:00:27;;;;;;;;;;;;;;;3.44;100.00;102599.28;5076789;28;19923;-78
2023/01/26 08:02:52;;;;;;;;;;;;;;;3.46;100.00;102599.31;5076808;28;19956;-78
2023/01/26 08:05:17;;;;;;;;;;;;;;;3.46;100.00;102607.94;5076300;28;19945;-78
2023/01/26 08:07:43;;;;;;;;;;;;;;;3.47;100.00;102611.41;5076441;28;20022;-78
2023/01/26 08:10:09;;;;;;;;;;;;;;;3.47;100.00;102613.97;5076344;28;20179;-78
2023/01/26 08:12:34;;;;;;;;;;;;;;;3.49;100.00;102616.59;5071610;28;19932;-78
2023/01/26 08:15:00;;;;;;;;;;;;;;;3.49;100.00;102606.25;5074834;28;19991;-78
2023/01/26 08:17:27;;;;;;;;;;;;;;;3.48;100.00;102607.97;5075858;28;19923;-78
2023/01/26 08:19:52;;;;;;;;;;;;;;;3.50;100.00;102615.78;5075944;28;20193;-78
2023/01/26 08:22:17;;;;;;;;;;;;;;;3.50;100.00;102613.19;5076355;28;19973;-78
2023/01/26 08:24:42;;;;;;;;;;;;;;;3.50;100.00;102621.81;5078640;28;20049;-78
2023/01/26 08:27:08;;;;;;;;;;;;;;;3.50;100.00;102616.63;5080581;28;21104;-78
2023/01/26 08:29:33;;;;;;;;;;;;;;;3.51;100.00;102617.50;5069809;28;20348;-78
2023/01/26 08:31:58;;;;;;;;;;;;;;;3.51;100.00;102622.69;5077264;28;19947;-78
2023/01/26 08:34:25;;;;;;;;;;;;;;;3.51;100.00;102623.56;5069950;28;19930;-77
2023/01/26 08:36:50;;;;;;;;;;;;;;;3.52;100.00;102627.88;5081929;28;20184;-77
2023/01/26 08:39:15;;;;;;;;;;;;;;;3.52;100.00;102625.31;5085937;28;20119;-77
2023/01/26 08:41:41;;;;;;;;;;;;;;;3.53;100.00;102629.66;5086039;28;19979;-77
2023/01/26 08:44:08;;;;;;;;;;;;;;;3.54;100.00;102626.19;5074196;28;20006;-77
2023/01/26 08:46:33;;;;;;;;;;;;;;;3.55;100.00;102627.97;5079561;28;19999;-77
2023/01/26 08:48:58;;;;;;;;;;;;;;;3.56;100.00;102627.09;5079396;28;19931;-77
2023/01/26 08:51:24;;;;;;;;;;;;;;;3.58;100.00;102624.53;5075845;28;20162;-77
2023/01/26 08:53:49;;;;;;;;;;;;;;;3.59;100.00;102631.47;5078512;28;20003;-77
2023/01/26 08:56:14;;;;;;;;;;;;;;;3.60;100.00;102628.00;5074515;28;20142;-77
2023/01/26 08:58:40;;;;;;;;;;;;;;;3.62;100.00;102624.63;5078588;28;20247;-77
2023/01/26 09:01:06;;;;;;;;;;;;;;;3.65;100.00;102629.84;5082559;28;20132;-77
2023/01/26 09:03:31;;;;;;;;;;;;;;;3.67;100.00;102632.47;5077086;28;19912;-77
2023/01/26 09:06:03;;;;;;;;;;;;;;;3.69;100.00;102628.16;5078211;28;20313;-77
2023/01/26 09:08:28;;;;;;;;;;;;;;;3.72;100.00;102637.72;5077958;28;20218;-77
2023/01/26 09:10:54;;;;;;;;;;;;;;;3.74;100.00;102646.41;5083215;28;19958;-78
2023/01/26 09:13:19;;;;;;;;;;;;;;;3.76;100.00;102645.56;5082940;28;19920;-78
2023/01/26 09:15:44;;;;;;;;;;;;;;;3.78;100.00;102653.38;5080423;28;19923;-78
2023/01/26 09:18:10;;;;;;;;;;;;;;;3.81;100.00;102662.06;5085327;28;19920;-78
2023/01/26 09:20:38;;;;;;;;;;;;;;;3.82;100.00;102658.66;5079444;28;20156;-78
2023/01/26 09:23:04;;;;;;;;;;;;;;;3.84;100.00;102661.25;5077096;28;19917;-78
2023/01/26 09:25:29;;;;;;;;;;;;;;;3.87;100.00;102661.28;5077967;28;19978;-78
2023/01/26 09:27:54;;;;;;;;;;;;;;;3.88;100.00;102669.97;5081507;28;20314;-78
2023/01/26 09:30:20;;;;;;;;;;;;;;;3.88;100.00;102676.00;5086260;28;19916;-78
2023/01/26 09:32:45;;;;;;;;;;;;;;;3.91;100.00;102664.81;5086256;28;19912;-78
2023/01/26 09:35:10;;;;;;;;;;;;;;;3.92;100.00;102669.16;5083683;28;20128;-78
2023/01/26 09:37:36;;;;;;;;;;;;;;;3.94;100.00;102665.72;5077797;28;20158;-78
2023/01/26 09:40:01;;;;;;;;;;;;;;;3.96;100.00;102660.56;5076588;28;19931;-78
2023/01/26 09:42:36;;;;;;;;;;;;;;;3.95;100.00;102667.50;5077257;28;19946;-78
2023/01/26 09:45:05;;;;;;;;;;;;;;;3.98;100.00;102659.78;5077860;28;19916;-78
2023/01/26 09:47:35;;;;;;;;;;;;;;;4.01;100.00;102659.78;5078846;28;20358;-78
2023/01/26 09:50:09;;;;;;;;;;;;;;;4.04;100.00;102664.19;5071952;28;19913;-78
2023/01/26 09:52:37;;;;;;;;;;;;;;;4.06;100.00;102659.00;5075734;28;19951;-78
2023/01/26 09:55:05;;;;;;;;;;;;;;;4.09;100.00;102662.50;5077577;28;20108;-78
2023/01/26 09:57:41;;;;;;;;;;;;;;;4.13;100.00;102666.00;5075754;28;19920;-78
2023/01/26 10:00:10;;;;;;;;;;;;;;;4.16;100.00;102666.06;5082216;28;20169;-78
2023/01/26 10:02:50;;;;;;;;;;;;;;;4.18;100.00;102664.38;5076810;28;20211;-78
2023/01/26 10:05:27;;;;;;;;;;;;;;;4.22;100.00;102666.16;5081069;28;20238;-78
2023/01/26 10:07:53;;;;;;;;;;;;;;;4.27;100.00;102664.50;5086211;28;19931;-78
2023/01/26 10:10:33;;;;;;;;;;;;;;;4.28;100.00;102666.25;5080181;28;20147;-78
2023/01/26 10:12:59;;;;;;;;;;;;;;;4.32;100.00;102668.03;5075101;28;19927;-78
2023/01/26 10:15:29;;;;;;;;;;;;;;;4.35;100.00;102675.88;5077439;28;19920;-78
2023/01/26 10:17:55;;;;;;;;;;;;;;;4.39;100.00;102671.59;5082077;28;19912;-78
2023/01/26 10:20:26;;;;;;;;;;;;;;;4.43;100.00;102671.66;5079867;28;19945;-78
2023/01/26 10:22:52;;;;;;;;;;;;;;;4.47;100.00;102669.13;5076466;28;19959;-78
2023/01/26 10:25:20;;;;;;;;;;;;;;;4.51;100.00;102674.38;5086855;28;19927;-78
2023/01/26 10:27:45;;;;;;;;;;;;;;;4.54;100.00;102677.00;5076951;28;20275;-78
2023/01/26 10:30:11;;;;;;;;;;;;;;;4.56;100.00;102682.22;5076545;28;19921;-78
2023/01/26 10:32:37;;;;;;;;;;;;;;;4.59;100.00;102682.25;5072632;28;19912;-78
2023/01/26 10:35:03;;;;;;;;;;;;;;;4.61;100.00;102676.22;5088181;28;20158;-78
2023/01/26 10:37:28;;;;;;;;;;;;;;;4.63;100.00;102678.84;5083081;28;19948;-78
2023/01/26 10:39:59;;;;;;;;;;;;;;;4.65;100.00;102677.16;5078425;28;19924;-78
2023/01/26 10:42:29;;;;;;;;;;;;;;;4.68;100.00;102690.16;5085170;28;20220;-78
2023/01/26 10:44:54;;;;;;;;;;;;;;;4.69;100.00;102681.53;5090838;28;20036;-78
2023/01/26 10:47:24;;;;;;;;;;;;;;;4.71;100.00;102684.13;5082943;28;20203;-78
2023/01/26 10:49:49;;;;;;;;;;;;;;;4.74;100.00;102687.66;5072443;28;19924;-78
2023/01/26 10:52:17;;;;;;;;;;;;;;;4.76;100.00;102685.94;5075995;28;19990;-78
2023/01/26 10:54:43;;;;;;;;;;;;;;;4.82;100.00;102690.38;5077579;28;20097;-78
2023/01/26 10:57:23;;;;;;;;;;;;;;;4.83;100.00;102688.63;5074710;28;20010;-78
2023/01/26 10:59:49;;;;;;;;;;;;;;;4.87;100.00;102695.59;5075053;28;20089;-78
2023/01/26 11:02:14;;;;;;;;;;;;;;;4.90;100.00;102690.47;5077157;28;19959;-78
2023/01/26 11:04:40;;;;;;;;;;;;;;;4.93;100.00;102691.38;5092430;28;20089;-78
2023/01/26 11:07:25;;;;;;;;;;;;;;;4.95;100.00;102683.59;5081236;28;19920;-78
2023/01/26 11:09:51;;;;;;;;;;;;;;;4.95;100.00;102689.66;5084561;28;19956;-78
2023/01/26 11:12:17;;;;;;;;;;;;;;;4.97;100.00;102685.34;5077301;28;20182;-78
2023/01/26 11:14:57;;;;;;;;;;;;;;;5.00;100.00;102681.91;5092410;28;20186;-77
2023/01/26 11:17:24;;;;;;;;;;;;;;;5.00;100.00;102682.81;5077855;28;19961;-77
2023/01/26 11:20:06;;;;;;;;;;;;;;;5.03;100.00;102668.97;5082029;28;20114;-77
2023/01/26 11:22:34;;;;;;;;;;;;;;;5.06;100.00;102663.81;5078771;28;19985;-77
2023/01/26 11:25:04;;;;;;;;;;;;;;;5.08;100.00;102663.84;5082320;28;19921;-77
2023/01/26 11:27:44;;;;;;;;;;;;;;;5.13;100.00;102667.34;5075972;28;20526;-78
2023/01/26 11:30:27;;;;;;;;;;;;;;;5.14;100.00;102669.09;5079301;28;20197;-78
2023/01/26 11:33:03;;;;;;;;;;;;;;;5.17;99.88;102680.38;5088818;28;19927;-78
2023/01/26 11:35:43;;;;;;;;;;;;;;;5.22;99.57;102671.75;5080118;28;19947;-78
2023/01/26 11:38:27;;;;;;;;;;;;;;;5.25;99.52;102671.81;5083116;28;19920;-78
2023/01/26 11:41:03;;;;;;;;;;;;;;;5.30;99.40;102675.34;5081580;28;19987;-78
2023/01/26 11:43:31;;;;;;;;;;;;;;;5.31;99.23;102669.25;5090264;28;19949;-78
2023/01/26 11:46:03;;;;;;;;;;;;;;;5.33;99.03;102672.75;5087135;28;19991;-78
2023/01/26 11:48:45;;;;;;;;;;;;;;;5.33;99.17;102671.03;5079615;28;19912;-78
2023/01/26 11:51:16;;;;;;;;;;;;;;;5.36;98.75;102670.19;5078347;28;19927;-78
2023/01/26 11:54:03;;;;;;;;;;;;;;;5.38;98.13;102656.38;5075626;28;19920;-78
2023/01/26 11:56:46;;;;;;;;;;;;;;;5.42;97.89;102662.47;5075635;28;19924;-78
2023/01/26 11:59:26;;;;;;;;;;;;;;;5.45;97.80;102649.50;5073640;28;19924;-78
2023/01/26 12:02:04;;;;;;;;;;;;;;;5.51;96.74;102657.38;5076966;28;19928;-78
2023/01/26 12:04:32;;;;;;;;;;;;;;;5.56;95.73;102658.25;5072925;28;19908;-78
2023/01/26 12:07:00;;;;;;;;;;;;;;;5.60;95.08;102659.16;5078063;28;19924;-77
2023/01/26 12:09:31;;;;;;;;;;;;;;;5.63;94.64;102653.13;5077357;28;19913;-78
2023/01/26 12:11:57;;;;;;;;;;;;;;;5.65;95.16;102657.47;5077612;28;19913;-78
2023/01/26 12:14:28;;;;;;;;;;;;;;;5.67;94.91;102660.09;5088365;28;19988;-77
2023/01/26 12:17:01;;;;;;;;;;;;;;;5.67;94.23;102653.16;5083773;28;19912;-77
2023/01/26 12:19:29;;;;;;;;;;;;;;;5.67;93.99;102644.50;5078720;28;19920;-77
2023/01/26 12:21:59;;;;;;;;;;;;;;;5.67;93.96;102634.97;5077164;28;19912;-77
2023/01/26 12:24:34;;;;;;;;;;;;;;;5.68;94.05;102641.06;5084444;28;19947;-77
2023/01/26 12:27:01;;;;;;;;;;;;;;;5.68;94.22;102630.66;5083562;28;19916;-77
2023/01/26 12:29:59;;;;;;;;;;;;;;;5.71;94.91;102630.66;5079557;28;19924;-77
2023/01/26 12:32:25;;;;;;;;;;;;;;;5.72;93.97;102627.22;5040046;28;20097;-78
2023/01/26 12:34:50;;;;;;;;;;;;;;;5.75;93.25;102624.66;5073704;28;19920;-78
2023/01/26 12:37:21;;;;;;;;;;;;;;;5.76;92.53;102624.63;5073472;28;19924;-77
2023/01/26 12:39:51;;;;;;;;;;;;;;;5.77;91.97;102617.72;5072616;28;20269;-77
2023/01/26 12:42:19;;;;;;;;;;;;;;;5.77;91.86;102608.19;5074056;28;20209;-77
2023/01/26 12:44:44;;;;;;;;;;;;;;;5.79;91.92;102604.75;5075358;28;20030;-77
2023/01/26 12:47:13;;;;;;;;;;;;;;;5.79;92.38;102612.53;5073724;28;20224;-77
2023/01/26 12:49:47;;;;;;;;;;;;;;;5.80;92.45;102607.31;5076752;28;19920;-77
2023/01/26 12:52:25;;;;;;;;;;;;;;;5.82;92.39;102594.34;5076050;28;19957;-77
2023/01/26 12:55:13;;;;;;;;;;;;;;;5.85;92.81;102607.38;5078174;28;19952;-77
2023/01/26 12:57:47;;;;;;;;;;;;;;;5.86;93.00;102602.19;5074759;28;19921;-77
2023/01/26 13:00:18;;;;;;;;;;;;;;;5.86;92.97;102601.34;5077939;28;20155;-77
2023/01/26 13:02:45;;;;;;;;;;;;;;;5.85;93.38;102603.03;5079243;28;20242;-77
2023/01/26 13:05:22;;;;;;;;;;;;;;;5.86;93.64;102598.72;5081678;28;19913;-77
2023/01/26 13:07:47;;;;;;;;;;;;;;;5.86;94.27;102594.38;5076732;28;19931;-77
2023/01/26 13:10:12;;;;;;;;;;;;;;;5.86;94.77;102607.38;5090624;28;20286;-77
2023/01/26 13:12:45;;;;;;;;;;;;;;;5.86;94.99;102603.94;5081520;28;19922;-77
2023/01/26 13:15:13;;;;;;;;;;;;;;;5.85;95.17;102592.63;5082030;28;19958;-77
2023/01/26 13:17:47;;;;;;;;;;;;;;;5.85;95.13;102595.25;5082344;28;20195;-77
2023/01/26 13:20:43;;;;;;;;;;;;;;;5.85;96.02;102600.44;5088145;28;19920;-77
2023/01/26 13:23:27;;;;;;;;;;;;;;;5.86;96.41;102602.19;5083789;28;19990;-77
2023/01/26 13:26:21;;;;;;;;;;;;;;;5.87;95.92;102609.13;5085444;28;19924;-77
2023/01/26 13:28:47;;;;;;;;;;;;;;;5.88;95.63;102615.22;5060925;28;19916;-77
2023/01/26 13:31:27;;;;;;;;;;;;;;;5.89;95.48;102623.00;5082039;28;19912;-77
2023/01/26 13:33:52;;;;;;;;;;;;;;;5.89;95.59;102617.78;5078771;28;19920;-77
2023/01/26 13:36:20;;;;;;;;;;;;;;;5.90;94.69;102618.69;5082347;28;19927;-77